Tiel, Netherlands
Current Conditions -  °F | °C
As of 4:55 AM on Sunday 25 Jan 2015 (Local Time) from EHVK Reporting Station
Haze Haze  
Wind Chill: 27°   Ceiling: 3100
Heat Index: 32°   Visibility: 3mi
Dew Point: 32°   Wind: 5mph
Humidity: 100%   Direction: 250°WSW
Pressure: 30.36"   Gusts: NA
Location:  51.89°N, 5.43°E
Report Text: EHVK 250355Z AUTO 25004KT 5000 BR SCT020 SCT025 BKN031 M00/M00 Q1028 WHT
Loading
Personal Weather Stations






























Interactive Weather Map New forecast layout! Learn more

10-Day Weather Forecast

Advertisements
Track Severe Weather on mobile